• Join FlightAware (Why Join?)
  • Login
  • US Flag 
09:46PM EDT


 

Airport Tracker/Info


-or-


 

Live Flight TrackerFlight Track Log ✈ SKW6345 ✈ 26-Jun-2013 ✈ KBZN - KSFO

Flight Track Log - Related Links

Times and Time Zones

All times are in EDT time to prevent confusion due to time zone crossing. See the SKW6345 flight status page for this flight to view local times or setup timezone preferences in your user account.

Time Position Orientation Groundspeed Altitude Reporting Facility
EDT Latitude Longitude Course Direction KTS MPH feet Rate Location/Type
03:24PM 45.3829 -111.8098 230° Southwest  Level Estimated
03:24PM 45.8014 -111.1883 229° Southwest 152 175 5,600  Level Salt Lake Center
03:25PM 45.3168 -111.9185 229° Southwest  Level Estimated
03:25PM 45.7844 -111.2675 253° West 186 214 7,800  Level Salt Lake Center
03:26PM 45.2506 -112.0270 229° Southwest  Level Estimated
03:26PM 45.7581 -111.3428 243° Southwest 199 229 10,200  Level Salt Lake Center
03:27PM 45.1809 -112.1406 229° Southwest  Level Estimated
03:27PM 45.7322 -111.4225 245° Southwest 210 242 11,900  Level Salt Lake Center
03:28PM 45.1111 -112.2540 229° Southwest  Level Estimated
03:28PM 45.7325 -111.5308 270° West 254 292 13,600  Level Salt Lake Center
03:29PM 45.0412 -112.3671 229° Southwest  Level Estimated
03:29PM 45.7017 -111.6236 245° Southwest 264 304 15,400  Level Salt Lake Center
03:30PM 44.9712 -112.4800 229° Southwest  Level Estimated
03:31PM 45.6597 -111.7194 238° Southwest 279 321 16,400  Level Salt Lake Center
03:32PM 45.6069 -111.8492 240° Southwest 310 357 17,700 1,020 Climbing Salt Lake Center
03:33PM 45.5553 -111.9597 236° Southwest 329 379 18,600 1,080 Climbing Salt Lake Center
03:34PM 45.5053 -112.0722 238° Southwest 336 387 20,000 1,380 Climbing Salt Lake Center
03:35PM 45.4578 -112.1781 237° Southwest 322 371 21,500 1,080 Climbing Salt Lake Center
03:36PM 45.4094 -112.2817 236° Southwest 315 362 22,300 660 Climbing Salt Lake Center
03:37PM 45.3525 -112.4075 237° Southwest 324 373 22,900 480 Climbing Salt Lake Center
03:38PM 45.3028 -112.5156 237° Southwest 335 386 23,400 480 Climbing Salt Lake Center
03:39PM 45.2431 -112.6439 237° Southwest 345 397 24,000 480 Climbing Salt Lake Center
03:40PM 45.1917 -112.7539 236° Southwest 349 402 24,500 480 Climbing Salt Lake Center
03:41PM 45.1314 -112.8847 237° Southwest 354 407 25,000 480 Climbing Salt Lake Center
03:42PM 45.0794 -112.9961 237° Southwest 356 410 25,500 480 Climbing Salt Lake Center
03:43PM 45.0183 -113.1258 236° Southwest 356 410 26,100 480 Climbing Salt Lake Center
03:44PM 44.9656 -113.2364 236° Southwest 355 409 26,600 480 Climbing Salt Lake Center
03:45PM 44.9042 -113.3656 236° Southwest 356 410 27,100 480 Climbing Salt Lake Center
03:46PM 44.8517 -113.4761 236° Southwest 356 410 27,600 480 Climbing Salt Lake Center
03:47PM 44.8017 -113.5850 237° Southwest 349 402 28,100 480 Climbing Salt Lake Center
03:48PM 44.7403 -113.7106 235° Southwest 348 400 28,700 480 Climbing Salt Lake Center
03:49PM 44.6900 -113.8186 237° Southwest 345 397 29,100 480 Climbing Salt Lake Center
03:50PM 44.6294 -113.9425 236° Southwest 345 397 29,700 480 Climbing Salt Lake Center
03:51PM 44.5708 -114.0606 235° Southwest 348 400 30,200 480 Climbing Salt Lake Center
03:52PM 44.5194 -114.1656 236° Southwest 343 395 30,700 480 Climbing Salt Lake Center
03:53PM 44.4619 -114.2886 237° Southwest 339 390 31,300 480 Climbing Salt Lake Center
03:54PM 44.4100 -114.3922 235° Southwest 338 389 31,800 300 Climbing Salt Lake Center
03:55PM 44.3500 -114.5131 235° Southwest 339 390 32,000 60 Climbing Salt Lake Center
03:56PM 44.2961 -114.6211 235° Southwest 346 398 32,000  Level Salt Lake Center
03:57PM 44.2331 -114.7467 235° Southwest 353 406 32,000  Level Salt Lake Center
03:58PM 44.1783 -114.8586 236° Southwest 360 414 32,000  Level Salt Lake Center
03:59PM 44.1211 -114.9722 235° Southwest 369 425 32,000  Level Salt Lake Center
04:00PM 44.0508 -115.1092 235° Southwest 383 441 32,000  Level Salt Lake Center
04:02PM 43.9919 -115.2231 234° Southwest 379 436 32,000  Level Salt Lake Center
04:03PM 43.9236 -115.3586 235° Southwest 383 441 32,000  Level Salt Lake Center
04:04PM 43.8656 -115.4742 235° Southwest 380 437 32,000  Level Salt Lake Center
04:05PM 43.7961 -115.6089 234° Southwest 383 441 32,000  Level Salt Lake Center
04:06PM 43.7367 -115.7242 235° Southwest 383 441 32,000  Level Salt Lake Center
04:07PM 43.6675 -115.8594 235° Southwest 385 443 32,000  Level Salt Lake Center
04:08PM 43.6083 -115.9747 235° Southwest 384 442 32,000  Level Salt Lake Center
04:09PM 43.5483 -116.0892 234° Southwest 383 441 32,000  Level Salt Lake Center
04:10PM 43.4786 -116.2233 234° Southwest 384 442 32,000  Level Salt Lake Center
04:11PM 43.4181 -116.3372 234° Southwest 383 441 32,000  Level Salt Lake Center
04:12PM 43.3478 -116.4706 234° Southwest 384 442 32,000  Level Salt Lake Center
04:13PM 43.2875 -116.5850 234° Southwest 386 444 32,000  Level Salt Lake Center
04:14PM 43.2164 -116.7183 234° Southwest 389 448 32,000  Level Salt Lake Center
04:15PM 43.1556 -116.8331 234° Southwest 389 448 32,000  Level Salt Lake Center
04:16PM 43.0836 -116.9653 233° Southwest 388 447 32,000  Level Salt Lake Center
04:17PM 43.0228 -117.0778 234° Southwest 385 443 32,000  Level Salt Lake Center
04:18PM 42.9617 -117.1919 234° Southwest 387 445 32,000  Level Salt Lake Center
04:19PM 42.8900 -117.3225 233° Southwest 386 444 32,000  Level Salt Lake Center
04:20PM 42.8292 -117.4347 234° Southwest 386 444 32,000  Level Salt Lake Center
04:21PM 42.7569 -117.5661 233° Southwest 386 444 32,000  Level Salt Lake Center
04:22PM 42.6958 -117.6778 233° Southwest 384 442 32,000  Level Salt Lake Center
04:23PM 42.6242 -117.8072 233° Southwest 385 443 32,000  Level Salt Lake Center
04:24PM 42.5567 -117.9125 229° Southwest 387 445 32,000  Level Salt Lake Center
04:25PM 42.4653 -118.0200 221° Southwest 390 449 32,000  Level Salt Lake Center
04:26PM 42.3875 -118.1142 222° Southwest 391 450 32,000  Level Salt Lake Center
04:27PM 42.3022 -118.2183 222° Southwest 389 448 32,000  Level Salt Lake Center
04:28PM 42.2239 -118.3125 222° Southwest 392 451 32,000  Level Salt Lake Center
04:29PM 42.1328 -118.4225 222° Southwest 394 453 32,000  Level Salt Lake Center
04:30PM 42.0542 -118.5139 221° Southwest 391 450 32,000  Level Salt Lake Center
04:31PM 41.9631 -118.6211 221° Southwest 390 449 32,000  Level Salt Lake Center
04:33PM 41.8850 -118.7144 222° Southwest 391 450 32,000  Level Salt Lake Center
04:34PM 41.7944 -118.8214 221° Southwest 389 448 32,000  Level Salt Lake Center
04:35PM 41.7164 -118.9128 221° Southwest 388 447 32,000  Level Salt Lake Center
04:36PM 41.6247 -119.0189 221° Southwest 390 449 32,000  Level Salt Lake Center
04:37PM 41.5469 -119.1103 221° Southwest 390 449 32,000  Level Salt Lake Center
04:37PM 41.5019 -119.1589 219° Southwest 393 452 32,000  Level Oakland Center
04:38PM 41.4206 -119.2547 221° Southwest 393 452 32,000  Level Oakland Center
04:39PM 41.3256 -119.3661 221° Southwest 394 453 32,000  Level Oakland Center
04:40PM 41.2550 -119.4464 221° Southwest 388 447 32,000  Level Seattle Center
04:41PM 41.1739 -119.5394 221° Southwest 387 445 32,000  Level Seattle Center
04:42PM 41.0922 -119.6339 221° Southwest 389 448 32,000  Level Seattle Center
04:43PM 41.0094 -119.7269 220° Southwest 391 450 32,000  Level Seattle Center
04:44PM 40.9267 -119.8208 221° Southwest 391 450 32,000  Level Seattle Center
04:45PM 40.8447 -119.9139 221° Southwest 389 448 32,000  Level Seattle Center
04:46PM 40.7608 -120.0083 220° Southwest 394 453 32,000  Level Seattle Center
04:47PM 40.6775 -120.1019 220° Southwest 394 453 32,000  Level Seattle Center
04:48PM 40.5783 -120.2128 220° Southwest 391 450 32,000  Level Seattle Center
04:49PM 40.4931 -120.3067 220° Southwest 396 456 32,000  Level Seattle Center
04:50PM 40.4111 -120.3972 220° Southwest 390 449 32,000  Level Seattle Center
04:51PM 40.3311 -120.4864 220° Southwest 386 444 32,000  Level Seattle Center
04:52PM 40.2464 -120.5783 220° Southwest 393 452 32,000  Level Seattle Center
04:53PM 40.1617 -120.6719 220° Southwest 397 457 32,000  Level Seattle Center
04:54PM 40.0753 -120.7658 220° Southwest 401 461 32,000  Level Seattle Center
04:56PM 39.9717 -120.8753 219° Southwest 402 463 32,000  Level Oakland Center
04:57PM 39.8694 -120.9894 221° Southwest 404 465 32,000  Level Oakland Center
04:58PM 39.7828 -121.0811 219° Southwest 403 464 32,000  Level Oakland Center
04:59PM 39.6956 -121.1772 220° Southwest 404 465 32,000  Level Oakland Center
05:00PM 39.6092 -121.2697 220° Southwest 403 464 32,000  Level Oakland Center
05:01PM 39.5222 -121.3608 219° Southwest 402 463 32,000  Level Oakland Center
05:02PM 39.4386 -121.4511 220° Southwest 403 464 32,000  Level Oakland Center
05:03PM 39.3522 -121.5442 220° Southwest 405 466 32,000  Level Oakland Center
05:04PM 39.2664 -121.6364 220° Southwest 405 466 32,000  Level Oakland Center
05:05PM 39.1619 -121.7461 219° Southwest 406 467 32,000  Level Oakland Center
05:06PM 39.0758 -121.8375 219° Southwest 404 465 32,000  Level Oakland Center
05:07PM 38.9886 -121.9294 219° Southwest 407 468 32,000  Level Oakland Center
05:08PM 38.9022 -122.0208 219° Southwest 405 466 32,000  Level Oakland Center
05:09PM 38.8144 -122.1103 218° Southwest 404 465 32,000  Level Oakland Center
05:10PM 38.7286 -122.2011 220° Southwest 402 463 32,000  Level Oakland Center
05:11PM 38.6272 -122.3061 219° Southwest 403 464 32,000 -240 Level Oakland Center
05:12PM 38.5394 -122.3972 219° Southwest 406 467 31,600 -1,680 Descending Oakland Center
05:13PM 38.4511 -122.4892 219° Southwest 409 471 28,600 -2,940 Descending Oakland Center
05:14PM 38.3647 -122.5783 219° Southwest 401 461 25,600 -2,940 Descending Oakland Center
05:15PM 38.2811 -122.6636 219° Southwest 389 448 22,600 -3,000 Descending Oakland Center
05:16PM 38.2000 -122.7408 217° Southwest 373 429 19,600 -2,880 Descending Oakland Center
05:17PM 38.1019 -122.7353 177° South 359 413 16,800 -2,880 Descending Oakland Center
05:18PM 38.0036 -122.7056 167° South 364 419 13,800 -2,880 Descending Oakland Center
05:19PM 37.8950 -122.6681 165° South 355 409 11,000 -1,440 Descending Oakland Center
05:20PM 37.8272 -122.5969 140° Southeast 329 379 10,900 -60 Descending Oakland Center
05:21PM 37.7592 -122.5239 140° Southeast 325 374 10,900  Level Oakland Center
05:22PM 37.6889 -122.4494 140° Southeast 329 379 10,900  Level Oakland Center
05:23PM 37.6261 -122.3828 140° Southeast 294 338 10,900 -720 Level Oakland Center
05:25PM 37.5500 -122.3167 145° Southeast 239 275 9,300 -1,560 Descending Northern Cal TRACON
05:26PM 37.4833 -122.2833 158° South 228 262 7,400 -1,740 Descending Northern Cal TRACON
05:27PM 37.4622 -122.1875 105° East 231 266 4,500 -1,380 Descending Oakland Center
05:28PM 37.5183 -122.1900 358° North 222 255 3,500 -900 Descending Oakland Center
05:29PM 37.5583 -122.2258 325° Northwest 195 224 2,700 -840 Descending Oakland Center